sensor_id;sensor_type;location;lat;lon;timestamp;temperature;humidity
67974;DHT22;54756;51.140;6.952;2023-08-06T00:00:54;17.20;98.30
67974;DHT22;54756;51.140;6.952;2023-08-06T00:02:55;17.20;98.30
67974;DHT22;54756;51.140;6.952;2023-08-06T00:04:55;17.10;98.20
67974;DHT22;54756;51.140;6.952;2023-08-06T00:06:56;17.20;98.20
67974;DHT22;54756;51.140;6.952;2023-08-06T00:08:56;17.10;98.20
67974;DHT22;54756;51.140;6.952;2023-08-06T00:10:57;17.10;98.20
67974;DHT22;54756;51.140;6.952;2023-08-06T00:12:57;17.10;98.10
67974;DHT22;54756;51.140;6.952;2023-08-06T00:14:58;17.10;98.00
67974;DHT22;54756;51.140;6.952;2023-08-06T00:16:58;17.10;98.00
67974;DHT22;54756;51.140;6.952;2023-08-06T00:18:59;17.10;98.00
67974;DHT22;54756;51.140;6.952;2023-08-06T00:20:59;17.10;98.00
67974;DHT22;54756;51.140;6.952;2023-08-06T00:23:00;17.10;97.90
67974;DHT22;54756;51.140;6.952;2023-08-06T00:25:01;17.10;97.80
67974;DHT22;54756;51.140;6.952;2023-08-06T00:27:02;17.00;97.80
67974;DHT22;54756;51.140;6.952;2023-08-06T00:29:02;17.00;97.80
67974;DHT22;54756;51.140;6.952;2023-08-06T00:31:03;17.00;97.80
67974;DHT22;54756;51.140;6.952;2023-08-06T00:33:03;17.00;97.80
67974;DHT22;54756;51.140;6.952;2023-08-06T00:35:04;17.00;97.80
67974;DHT22;54756;51.140;6.952;2023-08-06T00:37:05;16.90;97.80
67974;DHT22;54756;51.140;6.952;2023-08-06T00:39:05;16.90;97.80
67974;DHT22;54756;51.140;6.952;2023-08-06T00:41:08;16.90;97.80
67974;DHT22;54756;51.140;6.952;2023-08-06T00:43:09;16.90;97.80
67974;DHT22;54756;51.140;6.952;2023-08-06T00:45:10;16.80;97.80
67974;DHT22;54756;51.140;6.952;2023-08-06T00:47:10;16.80;97.80
67974;DHT22;54756;51.140;6.952;2023-08-06T00:49:11;16.80;97.80
67974;DHT22;54756;51.140;6.952;2023-08-06T00:51:11;16.80;97.80
67974;DHT22;54756;51.140;6.952;2023-08-06T00:53:12;16.80;97.90
67974;DHT22;54756;51.140;6.952;2023-08-06T00:55:13;16.80;97.90
67974;DHT22;54756;51.140;6.952;2023-08-06T00:57:14;16.80;98.00
67974;DHT22;54756;51.140;6.952;2023-08-06T00:59:15;16.80;98.00
67974;DHT22;54756;51.140;6.952;2023-08-06T01:01:15;16.80;98.00
67974;DHT22;54756;51.140;6.952;2023-08-06T01:03:16;16.80;98.00
67974;DHT22;54756;51.140;6.952;2023-08-06T01:05:16;16.80;98.10
67974;DHT22;54756;51.140;6.952;2023-08-06T01:07:33;16.80;98.10
67974;DHT22;54756;51.140;6.952;2023-08-06T01:12:09;16.80;98.00
67974;DHT22;54756;51.140;6.952;2023-08-06T01:14:20;16.80;98.10
67974;DHT22;54756;51.140;6.952;2023-08-06T01:16:24;16.80;98.00
67974;DHT22;54756;51.140;6.952;2023-08-06T01:18:26;16.80;98.00
67974;DHT22;54756;51.140;6.952;2023-08-06T01:20:30;16.80;97.90
67974;DHT22;54756;51.140;6.952;2023-08-06T01:22:31;16.80;97.90
67974;DHT22;54756;51.140;6.952;2023-08-06T01:24:32;16.80;97.90
67974;DHT22;54756;51.140;6.952;2023-08-06T01:27:32;16.80;97.90
67974;DHT22;54756;51.140;6.952;2023-08-06T01:30:04;16.80;97.90
67974;DHT22;54756;51.140;6.952;2023-08-06T01:32:08;16.70;97.80
67974;DHT22;54756;51.140;6.952;2023-08-06T01:34:24;16.70;97.90
67974;DHT22;54756;51.140;6.952;2023-08-06T01:36:26;16.70;97.80
67974;DHT22;54756;51.140;6.952;2023-08-06T01:38:27;16.70;97.90
67974;DHT22;54756;51.140;6.952;2023-08-06T01:40:28;16.70;97.90
67974;DHT22;54756;51.140;6.952;2023-08-06T01:42:29;16.60;97.90
67974;DHT22;54756;51.140;6.952;2023-08-06T01:44:30;16.60;98.00
67974;DHT22;54756;51.140;6.952;2023-08-06T01:46:31;16.60;98.00
67974;DHT22;54756;51.140;6.952;2023-08-06T01:48:31;16.70;98.10
67974;DHT22;54756;51.140;6.952;2023-08-06T01:50:32;16.60;98.10
67974;DHT22;54756;51.140;6.952;2023-08-06T01:52:32;16.60;98.10
67974;DHT22;54756;51.140;6.952;2023-08-06T01:54:33;16.60;98.10
67974;DHT22;54756;51.140;6.952;2023-08-06T01:56:33;16.60;98.10
67974;DHT22;54756;51.140;6.952;2023-08-06T01:58:34;16.60;98.00
67974;DHT22;54756;51.140;6.952;2023-08-06T02:00:34;16.60;98.00
67974;DHT22;54756;51.140;6.952;2023-08-06T02:02:35;16.60;98.00
67974;DHT22;54756;51.140;6.952;2023-08-06T02:04:36;16.60;98.10
67974;DHT22;54756;51.140;6.952;2023-08-06T02:06:36;16.50;98.20
67974;DHT22;54756;51.140;6.952;2023-08-06T02:08:37;16.50;98.20
67974;DHT22;54756;51.140;6.952;2023-08-06T02:10:37;16.50;98.20
67974;DHT22;54756;51.140;6.952;2023-08-06T02:12:38;16.50;98.30
67974;DHT22;54756;51.140;6.952;2023-08-06T02:14:38;16.50;98.30
67974;DHT22;54756;51.140;6.952;2023-08-06T02:16:39;16.50;98.40
67974;DHT22;54756;51.140;6.952;2023-08-06T02:18:39;16.50;98.40
67974;DHT22;54756;51.140;6.952;2023-08-06T02:20:40;16.50;98.40
67974;DHT22;54756;51.140;6.952;2023-08-06T02:22:41;16.50;98.40
67974;DHT22;54756;51.140;6.952;2023-08-06T02:24:41;16.50;98.50
67974;DHT22;54756;51.140;6.952;2023-08-06T02:26:42;16.50;98.40
67974;DHT22;54756;51.140;6.952;2023-08-06T02:28:43;16.40;98.40
67974;DHT22;54756;51.140;6.952;2023-08-06T02:30:50;16.40;98.50
67974;DHT22;54756;51.140;6.952;2023-08-06T02:32:51;16.40;98.50
67974;DHT22;54756;51.140;6.952;2023-08-06T02:34:51;16.40;98.60
67974;DHT22;54756;51.140;6.952;2023-08-06T02:36:52;16.40;98.60
67974;DHT22;54756;51.140;6.952;2023-08-06T02:38:52;16.40;98.70
67974;DHT22;54756;51.140;6.952;2023-08-06T02:40:53;16.40;98.70
67974;DHT22;54756;51.140;6.952;2023-08-06T02:42:53;16.40;98.70
67974;DHT22;54756;51.140;6.952;2023-08-06T02:44:54;16.40;98.80
67974;DHT22;54756;51.140;6.952;2023-08-06T02:46:58;16.50;99.10
67974;DHT22;54756;51.140;6.952;2023-08-06T02:48:58;16.40;98.80
67974;DHT22;54756;51.140;6.952;2023-08-06T02:51:00;16.40;98.80
67974;DHT22;54756;51.140;6.952;2023-08-06T02:53:00;16.50;98.90
67974;DHT22;54756;51.140;6.952;2023-08-06T02:55:01;16.40;98.80
67974;DHT22;54756;51.140;6.952;2023-08-06T02:57:02;16.40;98.80
67974;DHT22;54756;51.140;6.952;2023-08-06T02:59:03;16.40;98.80
67974;DHT22;54756;51.140;6.952;2023-08-06T03:01:05;16.40;98.80
67974;DHT22;54756;51.140;6.952;2023-08-06T03:03:06;16.50;98.80
67974;DHT22;54756;51.140;6.952;2023-08-06T03:05:07;16.50;98.80
67974;DHT22;54756;51.140;6.952;2023-08-06T03:07:07;16.50;98.80
67974;DHT22;54756;51.140;6.952;2023-08-06T03:09:08;16.50;98.90
67974;DHT22;54756;51.140;6.952;2023-08-06T03:11:08;16.50;98.90
67974;DHT22;54756;51.140;6.952;2023-08-06T03:13:09;16.50;98.90
67974;DHT22;54756;51.140;6.952;2023-08-06T03:15:10;16.50;98.90
67974;DHT22;54756;51.140;6.952;2023-08-06T03:17:10;16.50;98.90
67974;DHT22;54756;51.140;6.952;2023-08-06T03:19:11;16.50;98.90
67974;DHT22;54756;51.140;6.952;2023-08-06T03:21:11;16.50;98.90
67974;DHT22;54756;51.140;6.952;2023-08-06T03:23:12;16.50;98.90
67974;DHT22;54756;51.140;6.952;2023-08-06T03:25:13;16.50;98.80
67974;DHT22;54756;51.140;6.952;2023-08-06T03:27:13;16.50;98.80
67974;DHT22;54756;51.140;6.952;2023-08-06T03:29:14;16.50;98.80
67974;DHT22;54756;51.140;6.952;2023-08-06T03:31:14;16.50;98.80
67974;DHT22;54756;51.140;6.952;2023-08-06T03:33:15;16.50;98.80
67974;DHT22;54756;51.140;6.952;2023-08-06T03:35:15;16.50;98.80
67974;DHT22;54756;51.140;6.952;2023-08-06T03:37:16;16.50;98.80
67974;DHT22;54756;51.140;6.952;2023-08-06T03:39:16;16.50;98.80
67974;DHT22;54756;51.140;6.952;2023-08-06T03:41:17;16.50;98.80
67974;DHT22;54756;51.140;6.952;2023-08-06T03:43:17;16.50;98.80
67974;DHT22;54756;51.140;6.952;2023-08-06T03:45:18;16.50;98.80
67974;DHT22;54756;51.140;6.952;2023-08-06T03:47:18;16.50;98.90
67974;DHT22;54756;51.140;6.952;2023-08-06T03:49:19;16.50;98.90
67974;DHT22;54756;51.140;6.952;2023-08-06T03:51:20;16.50;98.90
67974;DHT22;54756;51.140;6.952;2023-08-06T03:53:20;16.50;98.80
67974;DHT22;54756;51.140;6.952;2023-08-06T03:55:21;16.50;98.80
67974;DHT22;54756;51.140;6.952;2023-08-06T03:57:21;16.50;98.80
67974;DHT22;54756;51.140;6.952;2023-08-06T03:59:22;16.50;98.80
67974;DHT22;54756;51.140;6.952;2023-08-06T04:01:23;16.50;98.80
67974;DHT22;54756;51.140;6.952;2023-08-06T04:03:23;16.50;98.80
67974;DHT22;54756;51.140;6.952;2023-08-06T04:05:24;16.50;98.80
67974;DHT22;54756;51.140;6.952;2023-08-06T04:07:25;16.50;98.80
67974;DHT22;54756;51.140;6.952;2023-08-06T04:09:28;16.50;98.80
67974;DHT22;54756;51.140;6.952;2023-08-06T04:11:28;16.50;98.80
67974;DHT22;54756;51.140;6.952;2023-08-06T04:13:29;16.50;98.90
67974;DHT22;54756;51.140;6.952;2023-08-06T04:15:29;16.50;98.80
67974;DHT22;54756;51.140;6.952;2023-08-06T04:17:30;16.50;98.80
67974;DHT22;54756;51.140;6.952;2023-08-06T04:19:30;16.50;98.80
67974;DHT22;54756;51.140;6.952;2023-08-06T04:21:31;16.50;98.80
67974;DHT22;54756;51.140;6.952;2023-08-06T04:23:32;16.50;98.80
67974;DHT22;54756;51.140;6.952;2023-08-06T04:25:32;16.50;98.90
67974;DHT22;54756;51.140;6.952;2023-08-06T04:27:33;16.50;98.90
67974;DHT22;54756;51.140;6.952;2023-08-06T04:29:33;16.50;99.00
67974;DHT22;54756;51.140;6.952;2023-08-06T04:31:34;16.50;99.00
67974;DHT22;54756;51.140;6.952;2023-08-06T04:33:34;16.50;99.00
67974;DHT22;54756;51.140;6.952;2023-08-06T04:35:35;16.50;99.00
67974;DHT22;54756;51.140;6.952;2023-08-06T04:37:35;16.50;99.10
67974;DHT22;54756;51.140;6.952;2023-08-06T04:39:36;16.50;99.20
67974;DHT22;54756;51.140;6.952;2023-08-06T04:41:36;16.50;99.20
67974;DHT22;54756;51.140;6.952;2023-08-06T04:43:37;16.50;99.30
67974;DHT22;54756;51.140;6.952;2023-08-06T04:45:37;16.50;99.40
67974;DHT22;54756;51.140;6.952;2023-08-06T04:47:38;16.50;99.40
67974;DHT22;54756;51.140;6.952;2023-08-06T04:49:39;16.50;99.50
67974;DHT22;54756;51.140;6.952;2023-08-06T04:51:39;16.40;99.50
67974;DHT22;54756;51.140;6.952;2023-08-06T04:53:40;16.50;99.80
67974;DHT22;54756;51.140;6.952;2023-08-06T04:55:41;16.50;99.80
67974;DHT22;54756;51.140;6.952;2023-08-06T04:57:41;16.50;99.80
67974;DHT22;54756;51.140;6.952;2023-08-06T04:59:42;16.50;99.80
67974;DHT22;54756;51.140;6.952;2023-08-06T05:01:42;16.50;99.80
67974;DHT22;54756;51.140;6.952;2023-08-06T05:03:43;16.50;99.80
67974;DHT22;54756;51.140;6.952;2023-08-06T05:05:46;16.50;99.80
67974;DHT22;54756;51.140;6.952;2023-08-06T05:07:48;16.40;99.90
67974;DHT22;54756;51.140;6.952;2023-08-06T05:09:49;16.50;99.90
67974;DHT22;54756;51.140;6.952;2023-08-06T05:11:50;16.50;99.90
67974;DHT22;54756;51.140;6.952;2023-08-06T05:13:50;16.40;99.90
67974;DHT22;54756;51.140;6.952;2023-08-06T05:15:53;16.50;99.90
67974;DHT22;54756;51.140;6.952;2023-08-06T05:17:54;16.40;99.90
67974;DHT22;54756;51.140;6.952;2023-08-06T05:19:54;16.50;99.90
67974;DHT22;54756;51.140;6.952;2023-08-06T05:21:55;16.50;99.90
67974;DHT22;54756;51.140;6.952;2023-08-06T05:23:55;16.50;99.90
67974;DHT22;54756;51.140;6.952;2023-08-06T05:25:56;16.50;99.90
67974;DHT22;54756;51.140;6.952;2023-08-06T05:27:56;16.50;99.90
67974;DHT22;54756;51.140;6.952;2023-08-06T05:29:57;16.50;99.90
67974;DHT22;54756;51.140;6.952;2023-08-06T05:31:57;16.50;99.90
67974;DHT22;54756;51.140;6.952;2023-08-06T05:33:58;16.50;99.90
67974;DHT22;54756;51.140;6.952;2023-08-06T05:35:58;16.50;99.90
67974;DHT22;54756;51.140;6.952;2023-08-06T05:37:59;16.50;99.90
67974;DHT22;54756;51.140;6.952;2023-08-06T05:39:59;16.50;99.90
67974;DHT22;54756;51.140;6.952;2023-08-06T05:42:01;16.50;99.90
67974;DHT22;54756;51.140;6.952;2023-08-06T05:44:01;16.60;99.90
67974;DHT22;54756;51.140;6.952;2023-08-06T05:46:02;16.60;99.90
67974;DHT22;54756;51.140;6.952;2023-08-06T05:48:03;16.60;99.90
67974;DHT22;54756;51.140;6.952;2023-08-06T05:50:03;16.60;99.90
67974;DHT22;54756;51.140;6.952;2023-08-06T05:52:04;16.60;99.90
67974;DHT22;54756;51.140;6.952;2023-08-06T05:54:06;16.60;99.90
67974;DHT22;54756;51.140;6.952;2023-08-06T05:56:07;16.60;99.90
67974;DHT22;54756;51.140;6.952;2023-08-06T05:58:07;16.60;99.90
67974;DHT22;54756;51.140;6.952;2023-08-06T06:00:08;16.60;99.90
67974;DHT22;54756;51.140;6.952;2023-08-06T06:02:09;16.60;99.90
67974;DHT22;54756;51.140;6.952;2023-08-06T06:04:10;16.70;99.90
67974;DHT22;54756;51.140;6.952;2023-08-06T06:06:10;16.70;99.90
67974;DHT22;54756;51.140;6.952;2023-08-06T06:08:11;16.70;99.90
67974;DHT22;54756;51.140;6.952;2023-08-06T06:10:11;16.70;99.90
67974;DHT22;54756;51.140;6.952;2023-08-06T06:12:12;16.80;99.90
67974;DHT22;54756;51.140;6.952;2023-08-06T06:14:12;16.80;99.90
67974;DHT22;54756;51.140;6.952;2023-08-06T06:16:13;16.80;99.90
67974;DHT22;54756;51.140;6.952;2023-08-06T06:18:13;16.80;99.90
67974;DHT22;54756;51.140;6.952;2023-08-06T06:20:14;16.80;99.90
67974;DHT22;54756;51.140;6.952;2023-08-06T06:22:15;16.90;99.90
67974;DHT22;54756;51.140;6.952;2023-08-06T06:24:15;16.90;99.90
67974;DHT22;54756;51.140;6.952;2023-08-06T06:26:16;16.90;99.90
67974;DHT22;54756;51.140;6.952;2023-08-06T06:28:16;16.90;99.90
67974;DHT22;54756;51.140;6.952;2023-08-06T06:30:17;16.90;99.90
67974;DHT22;54756;51.140;6.952;2023-08-06T06:32:18;16.90;99.90
67974;DHT22;54756;51.140;6.952;2023-08-06T06:34:18;16.90;99.90
67974;DHT22;54756;51.140;6.952;2023-08-06T06:36:19;16.90;99.90
67974;DHT22;54756;51.140;6.952;2023-08-06T06:38:20;16.90;99.90
67974;DHT22;54756;51.140;6.952;2023-08-06T06:40:20;17.00;99.90
67974;DHT22;54756;51.140;6.952;2023-08-06T06:42:21;16.90;99.90
67974;DHT22;54756;51.140;6.952;2023-08-06T06:44:23;17.00;99.90
67974;DHT22;54756;51.140;6.952;2023-08-06T06:46:23;17.00;99.90
67974;DHT22;54756;51.140;6.952;2023-08-06T06:48:28;17.00;99.90
67974;DHT22;54756;51.140;6.952;2023-08-06T06:50:29;17.00;99.90
67974;DHT22;54756;51.140;6.952;2023-08-06T06:52:29;17.10;99.90
67974;DHT22;54756;51.140;6.952;2023-08-06T06:54:30;17.10;99.90
67974;DHT22;54756;51.140;6.952;2023-08-06T06:56:31;17.10;99.90
67974;DHT22;54756;51.140;6.952;2023-08-06T06:58:32;17.10;99.90
67974;DHT22;54756;51.140;6.952;2023-08-06T07:00:35;17.10;99.90
67974;DHT22;54756;51.140;6.952;2023-08-06T07:02:35;17.10;99.90
67974;DHT22;54756;51.140;6.952;2023-08-06T07:04:36;17.10;99.90
67974;DHT22;54756;51.140;6.952;2023-08-06T07:06:36;17.10;99.90
67974;DHT22;54756;51.140;6.952;2023-08-06T07:08:37;17.10;99.90
67974;DHT22;54756;51.140;6.952;2023-08-06T07:10:38;17.20;99.90
67974;DHT22;54756;51.140;6.952;2023-08-06T07:12:38;17.10;99.90
67974;DHT22;54756;51.140;6.952;2023-08-06T07:14:39;17.10;99.90
67974;DHT22;54756;51.140;6.952;2023-08-06T07:16:39;17.20;99.90
67974;DHT22;54756;51.140;6.952;2023-08-06T07:18:40;17.20;99.90
67974;DHT22;54756;51.140;6.952;2023-08-06T07:20:40;17.30;99.90
67974;DHT22;54756;51.140;6.952;2023-08-06T07:22:41;17.30;99.90
67974;DHT22;54756;51.140;6.952;2023-08-06T07:24:41;17.30;99.90
67974;DHT22;54756;51.140;6.952;2023-08-06T07:26:42;17.30;99.90
67974;DHT22;54756;51.140;6.952;2023-08-06T07:28:43;17.30;99.90
67974;DHT22;54756;51.140;6.952;2023-08-06T07:30:45;17.30;99.90
67974;DHT22;54756;51.140;6.952;2023-08-06T07:32:46;17.40;99.90
67974;DHT22;54756;51.140;6.952;2023-08-06T07:34:46;17.40;99.90
67974;DHT22;54756;51.140;6.952;2023-08-06T07:36:47;17.40;99.90
67974;DHT22;54756;51.140;6.952;2023-08-06T07:38:47;17.50;99.90
67974;DHT22;54756;51.140;6.952;2023-08-06T07:40:51;17.50;99.90
67974;DHT22;54756;51.140;6.952;2023-08-06T07:42:52;17.60;99.90
67974;DHT22;54756;51.140;6.952;2023-08-06T07:44:54;17.70;99.90
67974;DHT22;54756;51.140;6.952;2023-08-06T07:46:55;17.70;99.90
67974;DHT22;54756;51.140;6.952;2023-08-06T07:48:55;17.70;99.90
67974;DHT22;54756;51.140;6.952;2023-08-06T07:50:56;17.80;99.90
67974;DHT22;54756;51.140;6.952;2023-08-06T07:52:57;17.80;99.90
67974;DHT22;54756;51.140;6.952;2023-08-06T07:54:57;17.80;99.90
67974;DHT22;54756;51.140;6.952;2023-08-06T07:56:59;17.80;99.90
67974;DHT22;54756;51.140;6.952;2023-08-06T07:58:59;17.80;99.90
67974;DHT22;54756;51.140;6.952;2023-08-06T08:01:00;17.90;99.80
67974;DHT22;54756;51.140;6.952;2023-08-06T08:03:00;17.90;99.60
67974;DHT22;54756;51.140;6.952;2023-08-06T08:05:01;17.90;99.60
67974;DHT22;54756;51.140;6.952;2023-08-06T08:07:01;17.90;99.70
67974;DHT22;54756;51.140;6.952;2023-08-06T08:09:02;17.90;99.60
67974;DHT22;54756;51.140;6.952;2023-08-06T08:11:03;18.00;99.60
67974;DHT22;54756;51.140;6.952;2023-08-06T08:13:03;18.00;99.30
67974;DHT22;54756;51.140;6.952;2023-08-06T08:15:04;18.00;99.00
67974;DHT22;54756;51.140;6.952;2023-08-06T08:17:06;18.00;98.90
67974;DHT22;54756;51.140;6.952;2023-08-06T08:19:06;18.00;98.80
67974;DHT22;54756;51.140;6.952;2023-08-06T08:21:07;18.00;98.70
67974;DHT22;54756;51.140;6.952;2023-08-06T08:23:07;18.10;98.20
67974;DHT22;54756;51.140;6.952;2023-08-06T08:25:08;18.00;97.90
67974;DHT22;54756;51.140;6.952;2023-08-06T08:27:08;18.00;98.20
67974;DHT22;54756;51.140;6.952;2023-08-06T08:29:09;18.00;97.90
67974;DHT22;54756;51.140;6.952;2023-08-06T08:31:10;18.00;97.90
67974;DHT22;54756;51.140;6.952;2023-08-06T08:33:11;18.00;97.90
67974;DHT22;54756;51.140;6.952;2023-08-06T08:35:12;18.00;97.90
67974;DHT22;54756;51.140;6.952;2023-08-06T08:37:13;18.00;98.00
67974;DHT22;54756;51.140;6.952;2023-08-06T08:39:14;18.10;97.90
67974;DHT22;54756;51.140;6.952;2023-08-06T08:41:15;18.00;97.80
67974;DHT22;54756;51.140;6.952;2023-08-06T08:43:17;18.00;97.80
67974;DHT22;54756;51.140;6.952;2023-08-06T08:45:20;18.10;97.70
67974;DHT22;54756;51.140;6.952;2023-08-06T08:47:23;18.10;97.60
67974;DHT22;54756;51.140;6.952;2023-08-06T08:49:26;18.10;97.50
67974;DHT22;54756;51.140;6.952;2023-08-06T08:51:28;18.10;97.50
67974;DHT22;54756;51.140;6.952;2023-08-06T08:53:30;18.10;97.60
67974;DHT22;54756;51.140;6.952;2023-08-06T08:55:31;18.10;97.60
67974;DHT22;54756;51.140;6.952;2023-08-06T08:57:32;18.20;97.60
67974;DHT22;54756;51.140;6.952;2023-08-06T08:59:33;18.20;97.60
67974;DHT22;54756;51.140;6.952;2023-08-06T09:01:34;18.20;97.60
67974;DHT22;54756;51.140;6.952;2023-08-06T09:03:36;18.20;97.60
67974;DHT22;54756;51.140;6.952;2023-08-06T09:05:43;18.20;97.60
67974;DHT22;54756;51.140;6.952;2023-08-06T09:07:48;18.20;97.60
67974;DHT22;54756;51.140;6.952;2023-08-06T09:09:49;18.30;97.60
67974;DHT22;54756;51.140;6.952;2023-08-06T09:11:50;18.30;97.50
67974;DHT22;54756;51.140;6.952;2023-08-06T09:13:53;18.40;97.30
67974;DHT22;54756;51.140;6.952;2023-08-06T09:15:54;18.40;97.10
67974;DHT22;54756;51.140;6.952;2023-08-06T09:17:55;18.40;97.10
67974;DHT22;54756;51.140;6.952;2023-08-06T09:19:56;18.40;97.10
67974;DHT22;54756;51.140;6.952;2023-08-06T09:21:56;18.50;97.30
67974;DHT22;54756;51.140;6.952;2023-08-06T09:23:58;18.50;97.30
67974;DHT22;54756;51.140;6.952;2023-08-06T09:25:59;18.60;97.10
67974;DHT22;54756;51.140;6.952;2023-08-06T09:28:00;18.60;96.90
67974;DHT22;54756;51.140;6.952;2023-08-06T09:30:00;18.60;96.70
67974;DHT22;54756;51.140;6.952;2023-08-06T09:32:01;18.60;96.70
67974;DHT22;54756;51.140;6.952;2023-08-06T09:34:02;18.70;96.60
67974;DHT22;54756;51.140;6.952;2023-08-06T09:36:10;18.70;96.50
67974;DHT22;54756;51.140;6.952;2023-08-06T09:38:11;18.70;96.30
67974;DHT22;54756;51.140;6.952;2023-08-06T09:42:24;18.80;96.30
67974;DHT22;54756;51.140;6.952;2023-08-06T09:44:27;18.80;96.20
67974;DHT22;54756;51.140;6.952;2023-08-06T09:46:28;18.80;95.90
67974;DHT22;54756;51.140;6.952;2023-08-06T09:48:33;18.80;95.70
67974;DHT22;54756;51.140;6.952;2023-08-06T09:50:36;18.70;95.60
67974;DHT22;54756;51.140;6.952;2023-08-06T09:52:37;18.70;95.70
67974;DHT22;54756;51.140;6.952;2023-08-06T09:54:38;18.70;95.90
67974;DHT22;54756;51.140;6.952;2023-08-06T09:56:38;18.70;95.90
67974;DHT22;54756;51.140;6.952;2023-08-06T09:58:39;18.70;95.90
67974;DHT22;54756;51.140;6.952;2023-08-06T10:00:40;18.60;95.70
67974;DHT22;54756;51.140;6.952;2023-08-06T10:02:41;18.60;95.90
67974;DHT22;54756;51.140;6.952;2023-08-06T10:04:44;18.60;96.00
67974;DHT22;54756;51.140;6.952;2023-08-06T10:06:47;18.60;95.80
67974;DHT22;54756;51.140;6.952;2023-08-06T10:08:50;18.50;95.70
67974;DHT22;54756;51.140;6.952;2023-08-06T10:10:51;18.50;95.70
67974;DHT22;54756;51.140;6.952;2023-08-06T10:12:54;18.40;95.70
67974;DHT22;54756;51.140;6.952;2023-08-06T10:15:00;18.40;95.80
67974;DHT22;54756;51.140;6.952;2023-08-06T10:17:02;18.30;95.80
67974;DHT22;54756;51.140;6.952;2023-08-06T10:19:04;18.10;95.60
67974;DHT22;54756;51.140;6.952;2023-08-06T10:21:08;18.00;96.00
67974;DHT22;54756;51.140;6.952;2023-08-06T10:23:09;17.80;96.50
67974;DHT22;54756;51.140;6.952;2023-08-06T10:25:10;17.70;97.20
67974;DHT22;54756;51.140;6.952;2023-08-06T10:27:10;17.60;97.60
67974;DHT22;54756;51.140;6.952;2023-08-06T10:29:36;17.40;97.90
67974;DHT22;54756;51.140;6.952;2023-08-06T10:31:58;17.30;98.50
67974;DHT22;54756;51.140;6.952;2023-08-06T10:34:00;17.20;99.10
67974;DHT22;54756;51.140;6.952;2023-08-06T10:36:03;17.20;99.30
67974;DHT22;54756;51.140;6.952;2023-08-06T10:40:11;17.00;99.90
67974;DHT22;54756;51.140;6.952;2023-08-06T10:42:30;17.00;99.90
67974;DHT22;54756;51.140;6.952;2023-08-06T10:44:31;17.00;99.90
67974;DHT22;54756;51.140;6.952;2023-08-06T10:46:32;17.00;99.90
67974;DHT22;54756;51.140;6.952;2023-08-06T10:48:37;17.00;99.90
67974;DHT22;54756;51.140;6.952;2023-08-06T10:50:37;16.90;99.90
67974;DHT22;54756;51.140;6.952;2023-08-06T10:52:38;16.90;99.90
67974;DHT22;54756;51.140;6.952;2023-08-06T10:54:39;16.90;99.90
67974;DHT22;54756;51.140;6.952;2023-08-06T10:56:40;16.80;99.90
67974;DHT22;54756;51.140;6.952;2023-08-06T10:58:44;16.70;99.90
67974;DHT22;54756;51.140;6.952;2023-08-06T11:00:45;16.60;99.90
67974;DHT22;54756;51.140;6.952;2023-08-06T11:02:47;16.50;99.90
67974;DHT22;54756;51.140;6.952;2023-08-06T11:04:48;16.40;99.90
67974;DHT22;54756;51.140;6.952;2023-08-06T11:06:52;16.30;99.90
67974;DHT22;54756;51.140;6.952;2023-08-06T11:08:54;16.20;99.90
67974;DHT22;54756;51.140;6.952;2023-08-06T11:10:55;16.20;99.90
67974;DHT22;54756;51.140;6.952;2023-08-06T11:13:01;16.10;99.90
67974;DHT22;54756;51.140;6.952;2023-08-06T11:15:04;16.00;99.90
67974;DHT22;54756;51.140;6.952;2023-08-06T11:17:05;16.00;99.90
67974;DHT22;54756;51.140;6.952;2023-08-06T11:19:07;15.90;99.90
67974;DHT22;54756;51.140;6.952;2023-08-06T11:21:08;15.90;99.90
67974;DHT22;54756;51.140;6.952;2023-08-06T11:23:10;15.90;99.90
67974;DHT22;54756;51.140;6.952;2023-08-06T11:25:10;15.90;99.90
67974;DHT22;54756;51.140;6.952;2023-08-06T11:27:14;15.90;99.90
67974;DHT22;54756;51.140;6.952;2023-08-06T11:29:16;15.90;99.90
67974;DHT22;54756;51.140;6.952;2023-08-06T11:31:23;15.90;99.90
67974;DHT22;54756;51.140;6.952;2023-08-06T11:33:24;15.90;99.90
67974;DHT22;54756;51.140;6.952;2023-08-06T11:35:28;15.80;99.90
67974;DHT22;54756;51.140;6.952;2023-08-06T11:37:28;15.80;99.90
67974;DHT22;54756;51.140;6.952;2023-08-06T11:39:29;15.80;99.90
67974;DHT22;54756;51.140;6.952;2023-08-06T11:41:31;15.80;99.90
67974;DHT22;54756;51.140;6.952;2023-08-06T11:43:31;15.80;99.90
67974;DHT22;54756;51.140;6.952;2023-08-06T11:45:35;15.80;99.90
67974;DHT22;54756;51.140;6.952;2023-08-06T11:47:38;15.80;99.90
67974;DHT22;54756;51.140;6.952;2023-08-06T11:49:49;15.80;99.90
67974;DHT22;54756;51.140;6.952;2023-08-06T11:51:50;15.80;99.90
67974;DHT22;54756;51.140;6.952;2023-08-06T11:53:55;15.80;99.90
67974;DHT22;54756;51.140;6.952;2023-08-06T11:55:56;15.80;99.90
67974;DHT22;54756;51.140;6.952;2023-08-06T11:57:57;15.80;99.90
67974;DHT22;54756;51.140;6.952;2023-08-06T12:00:05;15.80;99.90
67974;DHT22;54756;51.140;6.952;2023-08-06T12:02:09;15.80;99.90
67974;DHT22;54756;51.140;6.952;2023-08-06T12:04:11;15.90;99.90
67974;DHT22;54756;51.140;6.952;2023-08-06T12:06:11;15.90;99.90
67974;DHT22;54756;51.140;6.952;2023-08-06T12:08:12;15.90;99.90
67974;DHT22;54756;51.140;6.952;2023-08-06T12:10:13;15.90;99.90
67974;DHT22;54756;51.140;6.952;2023-08-06T12:12:14;16.00;99.90
67974;DHT22;54756;51.140;6.952;2023-08-06T12:14:14;15.90;99.90
67974;DHT22;54756;51.140;6.952;2023-08-06T12:16:15;16.00;99.90
67974;DHT22;54756;51.140;6.952;2023-08-06T12:18:18;16.00;99.90
67974;DHT22;54756;51.140;6.952;2023-08-06T12:20:18;16.00;99.90
67974;DHT22;54756;51.140;6.952;2023-08-06T12:22:19;16.00;99.90
67974;DHT22;54756;51.140;6.952;2023-08-06T12:24:20;16.00;99.90
67974;DHT22;54756;51.140;6.952;2023-08-06T12:26:20;16.00;99.90
67974;DHT22;54756;51.140;6.952;2023-08-06T12:28:21;16.00;99.90
67974;DHT22;54756;51.140;6.952;2023-08-06T12:30:21;16.00;99.90
67974;DHT22;54756;51.140;6.952;2023-08-06T12:32:22;16.00;99.90
67974;DHT22;54756;51.140;6.952;2023-08-06T12:34:22;16.00;99.90
67974;DHT22;54756;51.140;6.952;2023-08-06T12:36:23;16.00;99.90
67974;DHT22;54756;51.140;6.952;2023-08-06T12:38:24;16.10;99.90
67974;DHT22;54756;51.140;6.952;2023-08-06T12:40:26;16.10;99.90
67974;DHT22;54756;51.140;6.952;2023-08-06T12:42:26;16.10;99.90
67974;DHT22;54756;51.140;6.952;2023-08-06T12:44:27;16.10;99.90
67974;DHT22;54756;51.140;6.952;2023-08-06T12:46:27;16.10;99.90
67974;DHT22;54756;51.140;6.952;2023-08-06T12:48:28;16.10;99.90
67974;DHT22;54756;51.140;6.952;2023-08-06T12:50:29;16.10;99.90
67974;DHT22;54756;51.140;6.952;2023-08-06T12:52:29;16.10;99.90
67974;DHT22;54756;51.140;6.952;2023-08-06T12:54:30;16.10;99.90